sensor_id;sensor_type;location;lat;lon;timestamp;pressure;altitude;pressure_sealevel;temperature
12875;BMP180;6505;51.114;13.128;2023-04-25T00:01:46;98700.00;;;18.10
12875;BMP180;6505;51.114;13.128;2023-04-25T00:04:15;98697.00;;;18.10
12875;BMP180;6505;51.114;13.128;2023-04-25T00:06:44;98697.00;;;18.00
12875;BMP180;6505;51.114;13.128;2023-04-25T00:09:13;98697.00;;;18.00
12875;BMP180;6505;51.114;13.128;2023-04-25T00:11:41;98699.00;;;18.00
12875;BMP180;6505;51.114;13.128;2023-04-25T00:14:09;98702.00;;;18.00
12875;BMP180;6505;51.114;13.128;2023-04-25T00:16:37;98693.00;;;18.00
12875;BMP180;6505;51.114;13.128;2023-04-25T00:19:05;98699.00;;;18.00
12875;BMP180;6505;51.114;13.128;2023-04-25T00:21:36;98690.00;;;17.90
12875;BMP180;6505;51.114;13.128;2023-04-25T00:24:07;98687.00;;;17.90
12875;BMP180;6505;51.114;13.128;2023-04-25T00:26:35;98683.00;;;17.90
12875;BMP180;6505;51.114;13.128;2023-04-25T00:29:03;98689.00;;;17.90
12875;BMP180;6505;51.114;13.128;2023-04-25T00:31:31;98694.00;;;17.90
12875;BMP180;6505;51.114;13.128;2023-04-25T00:33:59;98681.00;;;17.90
12875;BMP180;6505;51.114;13.128;2023-04-25T00:36:27;98683.00;;;17.90
12875;BMP180;6505;51.114;13.128;2023-04-25T00:38:57;98678.00;;;17.80
12875;BMP180;6505;51.114;13.128;2023-04-25T00:41:26;98678.00;;;17.80
12875;BMP180;6505;51.114;13.128;2023-04-25T00:43:55;98678.00;;;17.80
12875;BMP180;6505;51.114;13.128;2023-04-25T00:46:23;98677.00;;;17.80
12875;BMP180;6505;51.114;13.128;2023-04-25T00:48:51;98677.00;;;17.80
12875;BMP180;6505;51.114;13.128;2023-04-25T00:51:21;98673.00;;;17.70
12875;BMP180;6505;51.114;13.128;2023-04-25T00:53:49;98683.00;;;17.70
12875;BMP180;6505;51.114;13.128;2023-04-25T00:56:20;98689.00;;;17.70
12875;BMP180;6505;51.114;13.128;2023-04-25T00:58:49;98680.00;;;17.70
12875;BMP180;6505;51.114;13.128;2023-04-25T01:01:17;98677.00;;;17.70
12875;BMP180;6505;51.114;13.128;2023-04-25T01:03:46;98670.00;;;17.70
12875;BMP180;6505;51.114;13.128;2023-04-25T01:06:17;98677.00;;;17.60
12875;BMP180;6505;51.114;13.128;2023-04-25T01:08:45;98669.00;;;17.60
12875;BMP180;6505;51.114;13.128;2023-04-25T01:11:13;98677.00;;;17.60
12875;BMP180;6505;51.114;13.128;2023-04-25T01:13:43;98670.00;;;17.60
12875;BMP180;6505;51.114;13.128;2023-04-25T01:16:11;98668.00;;;17.60
12875;BMP180;6505;51.114;13.128;2023-04-25T01:18:41;98670.00;;;17.50
12875;BMP180;6505;51.114;13.128;2023-04-25T01:21:11;98668.00;;;17.50
12875;BMP180;6505;51.114;13.128;2023-04-25T01:23:42;98671.00;;;17.50
12875;BMP180;6505;51.114;13.128;2023-04-25T01:26:11;98668.00;;;17.50
12875;BMP180;6505;51.114;13.128;2023-04-25T01:28:40;98673.00;;;17.50
12875;BMP180;6505;51.114;13.128;2023-04-25T01:31:11;98670.00;;;17.40
12875;BMP180;6505;51.114;13.128;2023-04-25T01:33:39;98671.00;;;17.40
12875;BMP180;6505;51.114;13.128;2023-04-25T01:36:08;98665.00;;;17.40
12875;BMP180;6505;51.114;13.128;2023-04-25T01:38:38;98665.00;;;17.40
12875;BMP180;6505;51.114;13.128;2023-04-25T01:41:07;98665.00;;;17.40
12875;BMP180;6505;51.114;13.128;2023-04-25T01:43:35;98672.00;;;17.40
12875;BMP180;6505;51.114;13.128;2023-04-25T01:46:04;98667.00;;;17.30
12875;BMP180;6505;51.114;13.128;2023-04-25T01:48:32;98670.00;;;17.30
12875;BMP180;6505;51.114;13.128;2023-04-25T01:51:00;98670.00;;;17.30
12875;BMP180;6505;51.114;13.128;2023-04-25T01:53:29;98675.00;;;17.30
12875;BMP180;6505;51.114;13.128;2023-04-25T01:56:00;98666.00;;;17.30
12875;BMP180;6505;51.114;13.128;2023-04-25T01:58:32;98667.00;;;17.20
12875;BMP180;6505;51.114;13.128;2023-04-25T02:01:05;98678.00;;;17.20
12875;BMP180;6505;51.114;13.128;2023-04-25T02:03:41;98684.00;;;17.20
12875;BMP180;6505;51.114;13.128;2023-04-25T02:06:18;98672.00;;;17.20
12875;BMP180;6505;51.114;13.128;2023-04-25T02:08:47;98678.00;;;17.10
12875;BMP180;6505;51.114;13.128;2023-04-25T02:11:17;98672.00;;;17.10
12875;BMP180;6505;51.114;13.128;2023-04-25T02:13:53;98676.00;;;17.10
12875;BMP180;6505;51.114;13.128;2023-04-25T02:16:32;98670.00;;;17.10
12875;BMP180;6505;51.114;13.128;2023-04-25T02:19:03;98670.00;;;17.10
12875;BMP180;6505;51.114;13.128;2023-04-25T02:21:31;98673.00;;;17.10
12875;BMP180;6505;51.114;13.128;2023-04-25T02:23:59;98676.00;;;17.00
12875;BMP180;6505;51.114;13.128;2023-04-25T02:26:29;98668.00;;;17.00
12875;BMP180;6505;51.114;13.128;2023-04-25T02:28:57;98672.00;;;17.00
12875;BMP180;6505;51.114;13.128;2023-04-25T02:31:25;98670.00;;;17.00
12875;BMP180;6505;51.114;13.128;2023-04-25T02:33:53;98652.00;;;17.00
12875;BMP180;6505;51.114;13.128;2023-04-25T02:36:21;98666.00;;;16.90
12875;BMP180;6505;51.114;13.128;2023-04-25T02:38:49;98673.00;;;16.90
12875;BMP180;6505;51.114;13.128;2023-04-25T02:41:17;98663.00;;;16.90
12875;BMP180;6505;51.114;13.128;2023-04-25T02:43:46;98665.00;;;16.90
12875;BMP180;6505;51.114;13.128;2023-04-25T02:46:18;98676.00;;;16.90
12875;BMP180;6505;51.114;13.128;2023-04-25T02:49:03;98668.00;;;16.90
12875;BMP180;6505;51.114;13.128;2023-04-25T02:51:32;98666.00;;;16.80
12875;BMP180;6505;51.114;13.128;2023-04-25T02:53:59;98659.00;;;16.80
12875;BMP180;6505;51.114;13.128;2023-04-25T02:56:28;98662.00;;;16.80
12875;BMP180;6505;51.114;13.128;2023-04-25T02:58:58;98657.00;;;16.80
12875;BMP180;6505;51.114;13.128;2023-04-25T03:01:27;98653.00;;;16.80
12875;BMP180;6505;51.114;13.128;2023-04-25T03:03:55;98650.00;;;16.80
12875;BMP180;6505;51.114;13.128;2023-04-25T03:06:23;98657.00;;;16.70
12875;BMP180;6505;51.114;13.128;2023-04-25T03:08:52;98654.00;;;16.70
12875;BMP180;6505;51.114;13.128;2023-04-25T03:11:20;98658.00;;;16.70
12875;BMP180;6505;51.114;13.128;2023-04-25T03:13:48;98661.00;;;16.70
12875;BMP180;6505;51.114;13.128;2023-04-25T03:16:17;98663.00;;;16.70
12875;BMP180;6505;51.114;13.128;2023-04-25T03:18:45;98648.00;;;16.70
12875;BMP180;6505;51.114;13.128;2023-04-25T03:21:13;98652.00;;;16.70
12875;BMP180;6505;51.114;13.128;2023-04-25T03:23:41;98659.00;;;16.70
12875;BMP180;6505;51.114;13.128;2023-04-25T03:26:09;98661.00;;;16.60
12875;BMP180;6505;51.114;13.128;2023-04-25T03:28:37;98664.00;;;16.60
12875;BMP180;6505;51.114;13.128;2023-04-25T03:31:06;98649.00;;;16.60
12875;BMP180;6505;51.114;13.128;2023-04-25T03:33:35;98645.00;;;16.60
12875;BMP180;6505;51.114;13.128;2023-04-25T03:36:04;98650.00;;;16.50
12875;BMP180;6505;51.114;13.128;2023-04-25T03:38:33;98649.00;;;16.50
12875;BMP180;6505;51.114;13.128;2023-04-25T03:41:01;98656.00;;;16.50
12875;BMP180;6505;51.114;13.128;2023-04-25T03:43:40;98662.00;;;16.50
12875;BMP180;6505;51.114;13.128;2023-04-25T03:46:11;98650.00;;;16.50
12875;BMP180;6505;51.114;13.128;2023-04-25T03:48:41;98661.00;;;16.50
12875;BMP180;6505;51.114;13.128;2023-04-25T03:51:14;98663.00;;;16.40
12875;BMP180;6505;51.114;13.128;2023-04-25T03:53:44;98674.00;;;16.40
12875;BMP180;6505;51.114;13.128;2023-04-25T03:56:15;98668.00;;;16.40
12875;BMP180;6505;51.114;13.128;2023-04-25T03:58:45;98677.00;;;16.40
12875;BMP180;6505;51.114;13.128;2023-04-25T04:01:15;98662.00;;;16.40
12875;BMP180;6505;51.114;13.128;2023-04-25T04:03:44;98670.00;;;16.40
12875;BMP180;6505;51.114;13.128;2023-04-25T04:06:13;98664.00;;;16.40
12875;BMP180;6505;51.114;13.128;2023-04-25T04:08:45;98674.00;;;16.30
12875;BMP180;6505;51.114;13.128;2023-04-25T04:11:13;98669.00;;;16.30
12875;BMP180;6505;51.114;13.128;2023-04-25T04:13:41;98664.00;;;16.30
12875;BMP180;6505;51.114;13.128;2023-04-25T04:16:09;98675.00;;;16.30
12875;BMP180;6505;51.114;13.128;2023-04-25T04:18:38;98671.00;;;16.30
12875;BMP180;6505;51.114;13.128;2023-04-25T04:21:07;98670.00;;;16.30
12875;BMP180;6505;51.114;13.128;2023-04-25T04:23:39;98675.00;;;16.30
12875;BMP180;6505;51.114;13.128;2023-04-25T04:26:08;98672.00;;;16.30
12875;BMP180;6505;51.114;13.128;2023-04-25T04:28:57;98676.00;;;16.30
12875;BMP180;6505;51.114;13.128;2023-04-25T04:31:47;98672.00;;;16.20
12875;BMP180;6505;51.114;13.128;2023-04-25T04:34:16;98665.00;;;16.20
12875;BMP180;6505;51.114;13.128;2023-04-25T04:36:46;98670.00;;;16.20
12875;BMP180;6505;51.114;13.128;2023-04-25T04:39:14;98664.00;;;16.20
12875;BMP180;6505;51.114;13.128;2023-04-25T04:41:54;98676.00;;;16.20
12875;BMP180;6505;51.114;13.128;2023-04-25T04:44:35;98679.00;;;16.20
12875;BMP180;6505;51.114;13.128;2023-04-25T04:47:10;98674.00;;;16.20
12875;BMP180;6505;51.114;13.128;2023-04-25T04:50:13;98689.00;;;16.20
12875;BMP180;6505;51.114;13.128;2023-04-25T04:53:18;98684.00;;;16.20
12875;BMP180;6505;51.114;13.128;2023-04-25T04:56:05;98682.00;;;16.20
12875;BMP180;6505;51.114;13.128;2023-04-25T04:58:56;98686.00;;;16.10
12875;BMP180;6505;51.114;13.128;2023-04-25T05:01:40;98682.00;;;16.10
12875;BMP180;6505;51.114;13.128;2023-04-25T05:04:34;98690.00;;;16.20
12875;BMP180;6505;51.114;13.128;2023-04-25T05:07:19;98689.00;;;16.20
12875;BMP180;6505;51.114;13.128;2023-04-25T05:10:07;98688.00;;;16.20
12875;BMP180;6505;51.114;13.128;2023-04-25T05:12:53;98686.00;;;16.20
12875;BMP180;6505;51.114;13.128;2023-04-25T05:15:36;98692.00;;;16.20
12875;BMP180;6505;51.114;13.128;2023-04-25T05:18:33;98692.00;;;16.20
12875;BMP180;6505;51.114;13.128;2023-04-25T05:21:20;98694.00;;;16.20
12875;BMP180;6505;51.114;13.128;2023-04-25T05:24:05;98695.00;;;16.30
12875;BMP180;6505;51.114;13.128;2023-04-25T05:26:53;98688.00;;;16.30
12875;BMP180;6505;51.114;13.128;2023-04-25T05:29:40;98692.00;;;16.30
12875;BMP180;6505;51.114;13.128;2023-04-25T05:32:16;98689.00;;;16.30
12875;BMP180;6505;51.114;13.128;2023-04-25T05:34:46;98695.00;;;16.40
12875;BMP180;6505;51.114;13.128;2023-04-25T05:37:22;98693.00;;;16.40
12875;BMP180;6505;51.114;13.128;2023-04-25T05:40:03;98690.00;;;16.40
12875;BMP180;6505;51.114;13.128;2023-04-25T05:42:57;98695.00;;;16.40
12875;BMP180;6505;51.114;13.128;2023-04-25T05:45:42;98688.00;;;16.40
12875;BMP180;6505;51.114;13.128;2023-04-25T05:48:30;98698.00;;;16.50
12875;BMP180;6505;51.114;13.128;2023-04-25T05:51:05;98700.00;;;16.50
12875;BMP180;6505;51.114;13.128;2023-04-25T05:53:45;98698.00;;;16.60
12875;BMP180;6505;51.114;13.128;2023-04-25T05:56:14;98704.00;;;16.60
12875;BMP180;6505;51.114;13.128;2023-04-25T05:58:43;98705.00;;;16.60
12875;BMP180;6505;51.114;13.128;2023-04-25T06:01:12;98702.00;;;16.70
12875;BMP180;6505;51.114;13.128;2023-04-25T06:03:40;98705.00;;;16.70
12875;BMP180;6505;51.114;13.128;2023-04-25T06:06:11;98704.00;;;16.80
12875;BMP180;6505;51.114;13.128;2023-04-25T06:08:39;98708.00;;;16.80
12875;BMP180;6505;51.114;13.128;2023-04-25T06:11:07;98720.00;;;16.80
12875;BMP180;6505;51.114;13.128;2023-04-25T06:13:35;98710.00;;;16.90
12875;BMP180;6505;51.114;13.128;2023-04-25T06:16:05;98718.00;;;16.90
12875;BMP180;6505;51.114;13.128;2023-04-25T06:18:34;98717.00;;;17.00
12875;BMP180;6505;51.114;13.128;2023-04-25T06:21:02;98712.00;;;17.00
12875;BMP180;6505;51.114;13.128;2023-04-25T06:23:31;98714.00;;;17.00
12875;BMP180;6505;51.114;13.128;2023-04-25T06:26:03;98707.00;;;17.10
12875;BMP180;6505;51.114;13.128;2023-04-25T06:28:32;98714.00;;;17.20
12875;BMP180;6505;51.114;13.128;2023-04-25T06:31:00;98719.00;;;17.20
12875;BMP180;6505;51.114;13.128;2023-04-25T06:33:30;98711.00;;;17.20
12875;BMP180;6505;51.114;13.128;2023-04-25T06:35:58;98714.00;;;17.30
12875;BMP180;6505;51.114;13.128;2023-04-25T06:38:27;98709.00;;;17.30
12875;BMP180;6505;51.114;13.128;2023-04-25T06:40:56;98712.00;;;17.40
12875;BMP180;6505;51.114;13.128;2023-04-25T06:43:27;98725.00;;;17.50
12875;BMP180;6505;51.114;13.128;2023-04-25T06:46:25;98719.00;;;17.50
12875;BMP180;6505;51.114;13.128;2023-04-25T06:48:55;98713.00;;;17.60
12875;BMP180;6505;51.114;13.128;2023-04-25T06:51:24;98718.00;;;17.70
12875;BMP180;6505;51.114;13.128;2023-04-25T06:53:55;98718.00;;;17.80
12875;BMP180;6505;51.114;13.128;2023-04-25T06:56:29;98727.00;;;17.80
12875;BMP180;6505;51.114;13.128;2023-04-25T06:59:14;98720.00;;;17.90
12875;BMP180;6505;51.114;13.128;2023-04-25T07:01:44;98727.00;;;18.00
12875;BMP180;6505;51.114;13.128;2023-04-25T07:04:20;98722.00;;;18.10
12875;BMP180;6505;51.114;13.128;2023-04-25T07:06:52;98730.00;;;18.20
12875;BMP180;6505;51.114;13.128;2023-04-25T07:09:29;98730.00;;;18.30
12875;BMP180;6505;51.114;13.128;2023-04-25T07:12:00;98725.00;;;18.40
12875;BMP180;6505;51.114;13.128;2023-04-25T07:14:29;98723.00;;;18.60
12875;BMP180;6505;51.114;13.128;2023-04-25T07:16:57;98731.00;;;18.70
12875;BMP180;6505;51.114;13.128;2023-04-25T07:19:28;98736.00;;;18.80
12875;BMP180;6505;51.114;13.128;2023-04-25T07:21:58;98727.00;;;18.90
12875;BMP180;6505;51.114;13.128;2023-04-25T07:24:27;98723.00;;;19.10
12875;BMP180;6505;51.114;13.128;2023-04-25T07:26:56;98726.00;;;19.20
12875;BMP180;6505;51.114;13.128;2023-04-25T07:29:30;98726.00;;;19.30
12875;BMP180;6505;51.114;13.128;2023-04-25T07:31:59;98726.00;;;19.40
12875;BMP180;6505;51.114;13.128;2023-04-25T07:34:29;98729.00;;;19.50
12875;BMP180;6505;51.114;13.128;2023-04-25T07:36:57;98727.00;;;19.70
12875;BMP180;6505;51.114;13.128;2023-04-25T07:39:33;98729.00;;;19.80
12875;BMP180;6505;51.114;13.128;2023-04-25T07:42:01;98735.00;;;20.00
12875;BMP180;6505;51.114;13.128;2023-04-25T07:44:30;98732.00;;;20.10
12875;BMP180;6505;51.114;13.128;2023-04-25T07:46:58;98738.00;;;20.20
12875;BMP180;6505;51.114;13.128;2023-04-25T07:49:31;98738.00;;;20.20
12875;BMP180;6505;51.114;13.128;2023-04-25T07:51:59;98741.00;;;20.30
12875;BMP180;6505;51.114;13.128;2023-04-25T07:54:27;98751.00;;;20.30
12875;BMP180;6505;51.114;13.128;2023-04-25T07:57:01;98756.00;;;20.40
12875;BMP180;6505;51.114;13.128;2023-04-25T07:59:30;98752.00;;;20.40
12875;BMP180;6505;51.114;13.128;2023-04-25T08:02:01;98755.00;;;20.50
12875;BMP180;6505;51.114;13.128;2023-04-25T08:04:31;98754.00;;;20.50
12875;BMP180;6505;51.114;13.128;2023-04-25T08:07:03;98756.00;;;20.50
12875;BMP180;6505;51.114;13.128;2023-04-25T08:09:38;98759.00;;;20.50
12875;BMP180;6505;51.114;13.128;2023-04-25T08:12:11;98750.00;;;20.60
12875;BMP180;6505;51.114;13.128;2023-04-25T08:14:40;98748.00;;;20.60
12875;BMP180;6505;51.114;13.128;2023-04-25T08:17:09;98768.00;;;20.60
12875;BMP180;6505;51.114;13.128;2023-04-25T08:19:41;98767.00;;;20.60
12875;BMP180;6505;51.114;13.128;2023-04-25T08:22:17;98767.00;;;20.60
12875;BMP180;6505;51.114;13.128;2023-04-25T08:24:51;98772.00;;;20.70
12875;BMP180;6505;51.114;13.128;2023-04-25T08:27:20;98776.00;;;20.60
12875;BMP180;6505;51.114;13.128;2023-04-25T08:29:49;98766.00;;;20.60
12875;BMP180;6505;51.114;13.128;2023-04-25T08:32:18;98782.00;;;20.60
12875;BMP180;6505;51.114;13.128;2023-04-25T08:35:02;98783.00;;;20.50
12875;BMP180;6505;51.114;13.128;2023-04-25T08:37:31;98781.00;;;20.50
12875;BMP180;6505;51.114;13.128;2023-04-25T08:40:06;98784.00;;;20.40
12875;BMP180;6505;51.114;13.128;2023-04-25T08:42:52;98798.00;;;20.40
12875;BMP180;6505;51.114;13.128;2023-04-25T08:45:21;98798.00;;;20.40
12875;BMP180;6505;51.114;13.128;2023-04-25T08:47:51;98797.00;;;20.30
12875;BMP180;6505;51.114;13.128;2023-04-25T08:50:22;98796.00;;;20.20
12875;BMP180;6505;51.114;13.128;2023-04-25T08:52:56;98799.00;;;20.20
12875;BMP180;6505;51.114;13.128;2023-04-25T08:55:29;98798.00;;;20.10
12875;BMP180;6505;51.114;13.128;2023-04-25T08:58:00;98809.00;;;20.10
12875;BMP180;6505;51.114;13.128;2023-04-25T09:00:29;98811.00;;;20.00
12875;BMP180;6505;51.114;13.128;2023-04-25T09:02:58;98814.00;;;20.00
12875;BMP180;6505;51.114;13.128;2023-04-25T09:05:32;98816.00;;;19.90
12875;BMP180;6505;51.114;13.128;2023-04-25T09:08:01;98818.00;;;19.80
12875;BMP180;6505;51.114;13.128;2023-04-25T09:10:29;98821.00;;;19.80
12875;BMP180;6505;51.114;13.128;2023-04-25T09:13:04;98831.00;;;19.80
12875;BMP180;6505;51.114;13.128;2023-04-25T09:15:49;98834.00;;;19.70
12875;BMP180;6505;51.114;13.128;2023-04-25T09:18:38;98829.00;;;19.70
12875;BMP180;6505;51.114;13.128;2023-04-25T09:21:15;98829.00;;;19.60
12875;BMP180;6505;51.114;13.128;2023-04-25T09:23:47;98831.00;;;19.60
12875;BMP180;6505;51.114;13.128;2023-04-25T09:26:19;98837.00;;;19.60
12875;BMP180;6505;51.114;13.128;2023-04-25T09:28:48;98845.00;;;19.50
12875;BMP180;6505;51.114;13.128;2023-04-25T09:31:22;98846.00;;;19.50
12875;BMP180;6505;51.114;13.128;2023-04-25T09:34:00;98847.00;;;19.40
12875;BMP180;6505;51.114;13.128;2023-04-25T09:36:39;98853.00;;;19.40
12875;BMP180;6505;51.114;13.128;2023-04-25T09:39:33;98850.00;;;19.40
12875;BMP180;6505;51.114;13.128;2023-04-25T09:42:10;98860.00;;;19.40
12875;BMP180;6505;51.114;13.128;2023-04-25T09:44:43;98862.00;;;19.30
12875;BMP180;6505;51.114;13.128;2023-04-25T09:47:14;98860.00;;;19.30
12875;BMP180;6505;51.114;13.128;2023-04-25T09:49:44;98864.00;;;19.30
12875;BMP180;6505;51.114;13.128;2023-04-25T09:52:17;98868.00;;;19.20
12875;BMP180;6505;51.114;13.128;2023-04-25T09:55:02;98869.00;;;19.20
12875;BMP180;6505;51.114;13.128;2023-04-25T09:57:34;98871.00;;;19.20
12875;BMP180;6505;51.114;13.128;2023-04-25T10:00:07;98874.00;;;19.20
12875;BMP180;6505;51.114;13.128;2023-04-25T10:02:46;98873.00;;;19.10
12875;BMP180;6505;51.114;13.128;2023-04-25T10:05:38;98872.00;;;19.10
12875;BMP180;6505;51.114;13.128;2023-04-25T10:08:08;98881.00;;;19.00
12875;BMP180;6505;51.114;13.128;2023-04-25T10:10:38;98873.00;;;19.00
12875;BMP180;6505;51.114;13.128;2023-04-25T10:13:08;98879.00;;;19.00
12875;BMP180;6505;51.114;13.128;2023-04-25T10:15:36;98879.00;;;19.00
12875;BMP180;6505;51.114;13.128;2023-04-25T10:18:06;98874.00;;;19.00
12875;BMP180;6505;51.114;13.128;2023-04-25T10:20:34;98877.00;;;19.00
12875;BMP180;6505;51.114;13.128;2023-04-25T10:23:14;98888.00;;;18.90
12875;BMP180;6505;51.114;13.128;2023-04-25T10:25:44;98891.00;;;18.90
12875;BMP180;6505;51.114;13.128;2023-04-25T10:28:12;98896.00;;;18.90
12875;BMP180;6505;51.114;13.128;2023-04-25T10:30:57;98886.00;;;18.80
12875;BMP180;6505;51.114;13.128;2023-04-25T10:33:32;98898.00;;;18.80
12875;BMP180;6505;51.114;13.128;2023-04-25T10:36:12;98893.00;;;18.80
12875;BMP180;6505;51.114;13.128;2023-04-25T10:38:43;98907.00;;;18.70
12875;BMP180;6505;51.114;13.128;2023-04-25T10:41:13;98902.00;;;18.70
12875;BMP180;6505;51.114;13.128;2023-04-25T10:43:42;98899.00;;;18.70
12875;BMP180;6505;51.114;13.128;2023-04-25T10:46:21;98918.00;;;18.70
12875;BMP180;6505;51.114;13.128;2023-04-25T10:48:51;98907.00;;;18.70
12875;BMP180;6505;51.114;13.128;2023-04-25T10:51:22;98900.00;;;18.70
12875;BMP180;6505;51.114;13.128;2023-04-25T10:54:00;98914.00;;;18.60
12875;BMP180;6505;51.114;13.128;2023-04-25T10:56:30;98907.00;;;18.60
12875;BMP180;6505;51.114;13.128;2023-04-25T10:59:05;98909.00;;;18.60
12875;BMP180;6505;51.114;13.128;2023-04-25T11:01:37;98911.00;;;18.60
12875;BMP180;6505;51.114;13.128;2023-04-25T11:04:20;98921.00;;;18.50
12875;BMP180;6505;51.114;13.128;2023-04-25T11:07:03;98909.00;;;18.50
12875;BMP180;6505;51.114;13.128;2023-04-25T11:09:38;98931.00;;;18.50
12875;BMP180;6505;51.114;13.128;2023-04-25T11:12:09;98927.00;;;18.50
12875;BMP180;6505;51.114;13.128;2023-04-25T11:14:38;98926.00;;;18.50
12875;BMP180;6505;51.114;13.128;2023-04-25T11:17:11;98926.00;;;18.50
12875;BMP180;6505;51.114;13.128;2023-04-25T11:19:39;98925.00;;;18.50
12875;BMP180;6505;51.114;13.128;2023-04-25T11:22:07;98926.00;;;18.50
12875;BMP180;6505;51.114;13.128;2023-04-25T11:24:39;98925.00;;;18.50
12875;BMP180;6505;51.114;13.128;2023-04-25T11:27:07;98929.00;;;18.50
12875;BMP180;6505;51.114;13.128;2023-04-25T11:29:36;98930.00;;;18.50
12875;BMP180;6505;51.114;13.128;2023-04-25T11:32:04;98926.00;;;18.50
12875;BMP180;6505;51.114;13.128;2023-04-25T11:34:33;98934.00;;;18.50
12875;BMP180;6505;51.114;13.128;2023-04-25T11:37:02;98921.00;;;18.40
12875;BMP180;6505;51.114;13.128;2023-04-25T11:39:30;98941.00;;;18.40
12875;BMP180;6505;51.114;13.128;2023-04-25T11:41:59;98944.00;;;18.40
12875;BMP180;6505;51.114;13.128;2023-04-25T11:44:33;98943.00;;;18.40
12875;BMP180;6505;51.114;13.128;2023-04-25T11:47:01;98946.00;;;18.40
12875;BMP180;6505;51.114;13.128;2023-04-25T11:49:30;98935.00;;;18.40
12875;BMP180;6505;51.114;13.128;2023-04-25T11:51:58;98940.00;;;18.40
12875;BMP180;6505;51.114;13.128;2023-04-25T11:54:26;98934.00;;;18.40
12875;BMP180;6505;51.114;13.128;2023-04-25T11:56:54;98942.00;;;18.40
12875;BMP180;6505;51.114;13.128;2023-04-25T11:59:25;98939.00;;;18.40
12875;BMP180;6505;51.114;13.128;2023-04-25T12:01:54;98942.00;;;18.40
12875;BMP180;6505;51.114;13.128;2023-04-25T12:04:24;98954.00;;;18.40
12875;BMP180;6505;51.114;13.128;2023-04-25T12:06:54;98945.00;;;18.40
12875;BMP180;6505;51.114;13.128;2023-04-25T12:09:29;98937.00;;;18.30
12875;BMP180;6505;51.114;13.128;2023-04-25T12:11:59;98952.00;;;18.40
12875;BMP180;6505;51.114;13.128;2023-04-25T12:14:33;98956.00;;;18.30
12875;BMP180;6505;51.114;13.128;2023-04-25T12:17:03;98953.00;;;18.40
12875;BMP180;6505;51.114;13.128;2023-04-25T12:19:36;98954.00;;;18.30
12875;BMP180;6505;51.114;13.128;2023-04-25T12:22:20;98959.00;;;18.30
12875;BMP180;6505;51.114;13.128;2023-04-25T12:24:49;98966.00;;;18.30
12875;BMP180;6505;51.114;13.128;2023-04-25T12:27:17;98962.00;;;18.30
12875;BMP180;6505;51.114;13.128;2023-04-25T12:29:57;98967.00;;;18.30
12875;BMP180;6505;51.114;13.128;2023-04-25T12:32:25;98970.00;;;18.30
12875;BMP180;6505;51.114;13.128;2023-04-25T12:34:53;98968.00;;;18.30
12875;BMP180;6505;51.114;13.128;2023-04-25T12:37:22;98970.00;;;18.30
12875;BMP180;6505;51.114;13.128;2023-04-25T12:39:50;98968.00;;;18.20
12875;BMP180;6505;51.114;13.128;2023-04-25T12:42:18;98969.00;;;18.20
12875;BMP180;6505;51.114;13.128;2023-04-25T12:44:46;98968.00;;;18.20
12875;BMP180;6505;51.114;13.128;2023-04-25T12:47:15;98976.00;;;18.20
12875;BMP180;6505;51.114;13.128;2023-04-25T12:49:43;98979.00;;;18.20
12875;BMP180;6505;51.114;13.128;2023-04-25T12:52:11;98983.00;;;18.20
12875;BMP180;6505;51.114;13.128;2023-04-25T12:54:39;98985.00;;;18.20
12875;BMP180;6505;51.114;13.128;2023-04-25T12:57:07;98990.00;;;18.20
12875;BMP180;6505;51.114;13.128;2023-04-25T12:59:35;98989.00;;;18.20
12875;BMP180;6505;51.114;13.128;2023-04-25T13:02:03;98986.00;;;18.20
12875;BMP180;6505;51.114;13.128;2023-04-25T13:04:32;99003.00;;;18.20
12875;BMP180;6505;51.114;13.128;2023-04-25T13:07:00;98999.00;;;18.20
12875;BMP180;6505;51.114;13.128;2023-04-25T13:09:28;99003.00;;;18.20
12875;BMP180;6505;51.114;13.128;2023-04-25T13:11:56;98978.00;;;18.20
12875;BMP180;6505;51.114;13.128;2023-04-25T13:14:25;98994.00;;;18.20
12875;BMP180;6505;51.114;13.128;2023-04-25T13:16:53;98999.00;;;18.20
12875;BMP180;6505;51.114;13.128;2023-04-25T13:19:21;99000.00;;;18.10
12875;BMP180;6505;51.114;13.128;2023-04-25T13:21:51;98997.00;;;18.10
12875;BMP180;6505;51.114;13.128;2023-04-25T13:24:19;99009.00;;;18.10
12875;BMP180;6505;51.114;13.128;2023-04-25T13:26:47;99006.00;;;18.10
12875;BMP180;6505;51.114;13.128;2023-04-25T13:29:15;99010.00;;;18.10
12875;BMP180;6505;51.114;13.128;2023-04-25T13:31:43;99007.00;;;18.10
12875;BMP180;6505;51.114;13.128;2023-04-25T13:34:11;99015.00;;;18.00
12875;BMP180;6505;51.114;13.128;2023-04-25T13:36:39;99008.00;;;18.00
12875;BMP180;6505;51.114;13.128;2023-04-25T13:39:09;99008.00;;;18.00
12875;BMP180;6505;51.114;13.128;2023-04-25T13:41:38;99014.00;;;18.00
12875;BMP180;6505;51.114;13.128;2023-04-25T13:44:06;99010.00;;;18.00
12875;BMP180;6505;51.114;13.128;2023-04-25T13:46:34;99006.00;;;18.00
12875;BMP180;6505;51.114;13.128;2023-04-25T13:49:13;99002.00;;;18.00
12875;BMP180;6505;51.114;13.128;2023-04-25T13:51:42;99015.00;;;18.00
12875;BMP180;6505;51.114;13.128;2023-04-25T13:54:11;99007.00;;;17.90
12875;BMP180;6505;51.114;13.128;2023-04-25T13:56:39;99008.00;;;18.00
12875;BMP180;6505;51.114;13.128;2023-04-25T13:59:09;99009.00;;;18.00
12875;BMP180;6505;51.114;13.128;2023-04-25T14:01:37;99012.00;;;18.00
12875;BMP180;6505;51.114;13.128;2023-04-25T14:04:05;99010.00;;;18.00
12875;BMP180;6505;51.114;13.128;2023-04-25T14:06:33;99016.00;;;18.00
12875;BMP180;6505;51.114;13.128;2023-04-25T14:09:02;99016.00;;;18.00
12875;BMP180;6505;51.114;13.128;2023-04-25T14:11:32;99005.00;;;18.00
12875;BMP180;6505;51.114;13.128;2023-04-25T14:14:00;99020.00;;;18.00
12875;BMP180;6505;51.114;13.128;2023-04-25T14:16:28;99017.00;;;18.00
12875;BMP180;6505;51.114;13.128;2023-04-25T14:18:57;99032.00;;;18.00
12875;BMP180;6505;51.114;13.128;2023-04-25T14:21:27;99025.00;;;17.90
12875;BMP180;6505;51.114;13.128;2023-04-25T14:23:55;99035.00;;;17.90
12875;BMP180;6505;51.114;13.128;2023-04-25T14:26:23;99035.00;;;17.90
12875;BMP180;6505;51.114;13.128;2023-04-25T14:28:52;99038.00;;;17.90
12875;BMP180;6505;51.114;13.128;2023-04-25T14:31:20;99036.00;;;17.90
12875;BMP180;6505;51.114;13.128;2023-04-25T14:33:48;99040.00;;;17.90
12875;BMP180;6505;51.114;13.128;2023-04-25T14:36:17;99040.00;;;17.90